Time;durP1;ratioP1;P1;durP2;ratioP2;P2;SDS_P1;SDS_P2;PMS_P1;PMS_P2;Temp;Humidity;BMP_temperature;BMP_pressure;BME280_temperature;BME280_humidity;BME280_pressure;Samples;Min_cycle;Max_cycle;Signal;HPM_P1;HPM_P2
2022/03/25 00:00:16;;;;;;;39.37;24.93;;;6.60;99.90;;;;;;5059914;28;20214;-48
2022/03/25 00:02:42;;;;;;;41.23;25.17;;;6.60;99.90;;;;;;5063319;28;20260;-47
2022/03/25 00:05:11;;;;;;;38.07;24.80;;;6.50;99.90;;;;;;5055513;28;20226;-52
2022/03/25 00:07:38;;;;;;;38.03;25.00;;;6.50;99.90;;;;;;5048079;28;20663;-46
2022/03/25 00:10:06;;;;;;;38.80;25.37;;;6.50;99.90;;;;;;5062387;28;20213;-50
2022/03/25 00:12:32;;;;;;;39.57;24.63;;;6.50;99.90;;;;;;5060961;28;20467;-49
2022/03/25 00:14:59;;;;;;;38.33;24.67;;;6.50;99.90;;;;;;5062432;28;20222;-52
2022/03/25 00:17:28;;;;;;;44.40;26.80;;;6.50;99.90;;;;;;5054863;28;20199;-48
2022/03/25 00:19:54;;;;;;;44.27;25.33;;;6.40;99.90;;;;;;5057752;28;20205;-49
2022/03/25 00:22:21;;;;;;;38.67;24.90;;;6.30;99.90;;;;;;5044985;28;20214;-47
2022/03/25 00:24:47;;;;;;;39.03;24.63;;;6.30;99.90;;;;;;5063077;28;20211;-51
2022/03/25 00:27:15;;;;;;;37.07;23.50;;;6.20;99.90;;;;;;5058930;28;20286;-51
2022/03/25 00:29:42;;;;;;;33.93;23.80;;;6.20;99.90;;;;;;5062606;28;21031;-53
2022/03/25 00:32:09;;;;;;;44.50;26.30;;;6.20;99.90;;;;;;5056184;28;20199;-52
2022/03/25 00:34:37;;;;;;;40.67;24.87;;;6.30;99.90;;;;;;5054347;28;20222;-51
2022/03/25 00:37:05;;;;;;;43.57;25.33;;;6.30;99.90;;;;;;5053326;28;20675;-50
2022/03/25 00:39:33;;;;;;;39.70;25.73;;;6.20;99.90;;;;;;5052345;28;20206;-50
2022/03/25 00:41:59;;;;;;;42.77;26.00;;;6.20;99.90;;;;;;5062954;28;20210;-53
2022/03/25 00:44:26;;;;;;;41.07;24.37;;;6.10;99.90;;;;;;5057691;28;20214;-49
2022/03/25 00:46:53;;;;;;;40.50;25.10;;;6.20;99.90;;;;;;5057053;28;20198;-48
2022/03/25 00:49:21;;;;;;;41.13;25.30;;;6.10;99.90;;;;;;5051535;28;23116;-50
2022/03/25 00:51:48;;;;;;;41.40;25.93;;;6.10;99.90;;;;;;5061856;28;20213;-50
2022/03/25 00:54:16;;;;;;;42.17;25.87;;;6.00;99.90;;;;;;5043238;28;20236;-51
2022/03/25 00:56:42;;;;;;;39.37;25.10;;;6.00;99.90;;;;;;5061983;28;20261;-54
2022/03/25 00:59:09;;;;;;;44.50;25.33;;;5.90;99.90;;;;;;5059456;28;20213;-53
2022/03/25 01:01:37;;;;;;;39.33;25.00;;;5.90;99.90;;;;;;5060795;28;20232;-49
2022/03/25 01:04:05;;;;;;;44.27;24.97;;;5.90;99.90;;;;;;5055183;28;20273;-52
2022/03/25 01:06:32;;;;;;;39.70;25.63;;;5.90;99.90;;;;;;5052933;28;20194;-50
2022/03/25 01:09:00;;;;;;;40.97;24.17;;;5.90;99.90;;;;;;5046205;28;20202;-50
2022/03/25 01:11:27;;;;;;;41.13;23.20;;;5.80;99.90;;;;;;5058618;28;20196;-49
2022/03/25 01:13:54;;;;;;;41.33;24.90;;;5.80;99.90;;;;;;5062150;28;20328;-48
2022/03/25 01:16:22;;;;;;;41.10;23.93;;;5.80;99.90;;;;;;5056207;28;20210;-47
2022/03/25 01:18:49;;;;;;;44.03;25.27;;;5.70;99.90;;;;;;5058163;28;20212;-50
2022/03/25 01:21:17;;;;;;;37.63;22.80;;;5.70;99.90;;;;;;5053290;28;20212;-48
2022/03/25 01:23:44;;;;;;;35.70;23.27;;;5.60;99.90;;;;;;5048987;28;20215;-50
2022/03/25 01:26:15;;;;;;;38.13;22.90;;;5.70;99.90;;;;;;5058508;28;20206;-52
2022/03/25 01:28:42;;;;;;;37.73;22.97;;;5.60;99.90;;;;;;5064418;28;20212;-49
2022/03/25 01:31:10;;;;;;;39.47;22.97;;;5.70;99.90;;;;;;5059365;28;20821;-52
2022/03/25 01:33:37;;;;;;;36.60;23.83;;;5.60;99.90;;;;;;5055601;28;20203;-50
2022/03/25 01:36:05;;;;;;;39.37;24.30;;;5.60;99.90;;;;;;5054880;28;21123;-51
2022/03/25 01:38:33;;;;;;;40.20;23.23;;;5.70;99.90;;;;;;5061742;28;20191;-48
2022/03/25 01:41:01;;;;;;;35.00;22.50;;;5.60;99.90;;;;;;5049850;28;20214;-51
2022/03/25 01:43:29;;;;;;;42.40;24.47;;;5.60;99.90;;;;;;5062070;28;20311;-50
2022/03/25 01:45:56;;;;;;;38.37;23.20;;;5.50;99.90;;;;;;5064887;28;20222;-49
2022/03/25 01:48:23;;;;;;;42.27;24.37;;;5.60;99.90;;;;;;5062396;28;20388;-49
2022/03/25 01:50:50;;;;;;;39.77;24.33;;;5.50;99.90;;;;;;5055915;28;20202;-51
2022/03/25 01:53:19;;;;;;;35.97;22.60;;;5.40;99.90;;;;;;5062207;28;20205;-48
2022/03/25 01:55:50;;;;;;;44.07;24.47;;;5.40;99.90;;;;;;5051913;28;20214;-48
2022/03/25 01:58:19;;;;;;;40.40;25.03;;;5.40;99.90;;;;;;5060156;28;20202;-52
2022/03/25 02:00:47;;;;;;;39.47;24.63;;;5.40;99.90;;;;;;5065432;28;20209;-49
2022/03/25 02:03:16;;;;;;;42.13;24.53;;;5.40;99.90;;;;;;5061052;28;20219;-47
2022/03/25 02:05:43;;;;;;;45.13;24.67;;;5.30;99.90;;;;;;5054662;28;20776;-51
2022/03/25 02:08:10;;;;;;;36.77;22.90;;;5.40;99.90;;;;;;5070517;28;20211;-50
2022/03/25 02:10:38;;;;;;;38.20;24.33;;;5.30;99.90;;;;;;5044827;28;20265;-48
2022/03/25 02:13:08;;;;;;;39.13;24.60;;;5.30;99.90;;;;;;5056891;28;20256;-52
2022/03/25 02:15:37;;;;;;;40.00;24.13;;;5.30;99.90;;;;;;5063822;28;20207;-46
2022/03/25 02:18:14;;;;;;;38.47;23.60;;;5.30;99.90;;;;;;5061426;28;20190;-54
2022/03/25 02:20:42;;;;;;;47.10;25.20;;;5.20;99.90;;;;;;5060903;28;20210;-48
2022/03/25 02:23:14;;;;;;;36.73;23.93;;;5.20;99.90;;;;;;5055252;28;20226;-49
2022/03/25 02:25:42;;;;;;;40.30;23.73;;;5.10;99.90;;;;;;5065592;28;20218;-50
2022/03/25 02:28:11;;;;;;;39.17;24.40;;;5.10;99.90;;;;;;5046478;28;20210;-51
2022/03/25 02:30:40;;;;;;;39.73;23.67;;;5.10;99.90;;;;;;5062491;28;20703;-48
2022/03/25 02:33:08;;;;;;;41.93;24.97;;;5.10;99.90;;;;;;5063299;28;20195;-50
2022/03/25 02:35:37;;;;;;;39.00;24.67;;;5.10;99.90;;;;;;5064074;28;20207;-47
2022/03/25 02:38:04;;;;;;;37.07;24.00;;;5.10;99.90;;;;;;5060014;28;20199;-53
2022/03/25 02:40:35;;;;;;;36.77;23.33;;;4.90;99.90;;;;;;5063376;28;20206;-48
2022/03/25 02:43:03;;;;;;;39.27;23.37;;;4.90;99.90;;;;;;5047513;28;20602;-53
2022/03/25 02:45:31;;;;;;;40.17;23.83;;;4.90;99.90;;;;;;5060550;28;20219;-46
2022/03/25 02:47:59;;;;;;;37.90;23.40;;;4.80;99.90;;;;;;5062140;28;20290;-51
2022/03/25 02:50:26;;;;;;;41.43;24.97;;;4.80;99.90;;;;;;5060007;28;20195;-48
2022/03/25 02:52:54;;;;;;;45.63;25.53;;;4.80;99.90;;;;;;5058803;28;20198;-47
2022/03/25 02:55:21;;;;;;;39.13;24.17;;;4.80;99.90;;;;;;5061018;28;20206;-46
2022/03/25 02:57:49;;;;;;;37.40;23.03;;;4.80;99.90;;;;;;5064182;28;20198;-48
2022/03/25 03:00:19;;;;;;;40.50;24.47;;;4.80;99.90;;;;;;5046561;28;20215;-51
2022/03/25 03:02:46;;;;;;;39.90;23.53;;;4.80;99.90;;;;;;5064491;28;20629;-47
2022/03/25 03:05:14;;;;;;;38.93;23.67;;;4.90;99.90;;;;;;5061610;28;20305;-49
2022/03/25 03:07:41;;;;;;;39.17;24.03;;;4.90;99.90;;;;;;5057867;28;20207;-51
2022/03/25 03:10:09;;;;;;;41.53;24.27;;;4.80;99.90;;;;;;5062624;28;20201;-47
2022/03/25 03:12:37;;;;;;;38.20;24.60;;;4.80;99.90;;;;;;5063212;28;20186;-46
2022/03/25 03:15:07;;;;;;;41.33;24.37;;;4.70;99.90;;;;;;5049414;28;20705;-51
2022/03/25 03:17:34;;;;;;;44.63;24.50;;;4.70;99.90;;;;;;5060581;28;20193;-46
2022/03/25 03:20:02;;;;;;;42.37;22.83;;;4.70;99.90;;;;;;5063863;28;20561;-50
2022/03/25 03:22:29;;;;;;;40.33;24.83;;;4.70;99.90;;;;;;5055151;28;20213;-51
2022/03/25 03:24:56;;;;;;;40.07;23.90;;;4.60;99.90;;;;;;5064821;28;20265;-46
2022/03/25 03:27:23;;;;;;;41.33;23.80;;;4.70;99.90;;;;;;5059505;28;20882;-48
2022/03/25 03:29:49;;;;;;;42.50;23.60;;;4.70;99.90;;;;;;5050461;28;20207;-50
2022/03/25 03:32:18;;;;;;;37.50;22.97;;;4.70;99.90;;;;;;5059720;28;20217;-50
2022/03/25 03:34:45;;;;;;;44.60;25.70;;;4.60;99.90;;;;;;5064233;28;20226;-46
2022/03/25 03:37:12;;;;;;;38.47;23.77;;;4.60;99.90;;;;;;5055753;28;20195;-48
2022/03/25 03:39:39;;;;;;;38.13;24.03;;;4.50;99.90;;;;;;5062425;28;20207;-47
2022/03/25 03:42:06;;;;;;;36.10;22.83;;;4.40;99.90;;;;;;5062314;28;20683;-50
2022/03/25 03:44:35;;;;;;;37.87;24.13;;;4.30;99.90;;;;;;5048073;28;20494;-50
2022/03/25 03:47:03;;;;;;;40.87;24.00;;;4.40;99.90;;;;;;5061467;28;20217;-51
2022/03/25 03:49:31;;;;;;;43.40;24.47;;;4.30;99.90;;;;;;5061536;28;20194;-47
2022/03/25 03:51:57;;;;;;;38.30;23.73;;;4.40;99.90;;;;;;5063649;28;20728;-50
2022/03/25 03:54:24;;;;;;;37.37;23.23;;;4.40;99.90;;;;;;5053739;28;20218;-47
2022/03/25 03:56:51;;;;;;;46.60;25.57;;;4.30;99.90;;;;;;5063226;28;20206;-51
2022/03/25 03:59:18;;;;;;;44.27;24.40;;;4.30;99.90;;;;;;5046655;28;20198;-52
2022/03/25 04:01:45;;;;;;;38.90;23.57;;;4.20;99.90;;;;;;5062384;28;20202;-47
2022/03/25 04:04:12;;;;;;;38.40;23.90;;;4.20;99.90;;;;;;5060052;28;20218;-50
2022/03/25 04:06:40;;;;;;;39.40;24.83;;;4.20;99.90;;;;;;5062339;28;20205;-47
2022/03/25 04:09:07;;;;;;;42.43;25.67;;;4.20;99.90;;;;;;5058393;28;20229;-52
2022/03/25 04:11:34;;;;;;;42.70;25.30;;;4.20;99.90;;;;;;5060078;28;20205;-48
2022/03/25 04:14:01;;;;;;;41.67;25.10;;;4.10;99.90;;;;;;5064328;28;20205;-52
2022/03/25 04:16:29;;;;;;;44.53;25.40;;;4.10;99.90;;;;;;5045951;28;20234;-48
2022/03/25 04:18:57;;;;;;;44.27;26.93;;;4.10;99.90;;;;;;5063408;28;20214;-45
2022/03/25 04:21:24;;;;;;;39.80;23.93;;;4.10;99.90;;;;;;5059715;28;20671;-51
2022/03/25 04:23:52;;;;;;;44.53;25.40;;;4.10;99.90;;;;;;5062668;28;20742;-48
2022/03/25 04:26:19;;;;;;;46.40;26.07;;;4.00;99.90;;;;;;5051982;28;20230;-46
2022/03/25 04:28:45;;;;;;;45.47;27.07;;;4.00;99.90;;;;;;5063415;28;20201;-49
2022/03/25 04:31:12;;;;;;;42.87;25.87;;;4.10;99.90;;;;;;5049312;28;20190;-53
2022/03/25 04:33:40;;;;;;;43.03;24.60;;;4.00;99.90;;;;;;5059357;28;20725;-46
2022/03/25 04:36:09;;;;;;;43.63;25.30;;;4.00;99.90;;;;;;5060285;28;20230;-51
2022/03/25 04:38:36;;;;;;;47.07;26.20;;;3.90;99.90;;;;;;5062170;28;20890;-51
2022/03/25 04:41:04;;;;;;;42.83;24.73;;;3.80;99.90;;;;;;5055947;28;20288;-49
2022/03/25 04:43:31;;;;;;;43.83;26.63;;;3.80;99.90;;;;;;5060429;28;20225;-47
2022/03/25 04:45:59;;;;;;;51.90;27.30;;;3.80;99.90;;;;;;5060126;28;20264;-51
2022/03/25 04:48:26;;;;;;;43.60;25.90;;;3.80;99.90;;;;;;5047732;28;20206;-52
2022/03/25 04:50:52;;;;;;;43.07;26.50;;;3.80;99.90;;;;;;5062372;28;20206;-46
2022/03/25 04:53:19;;;;;;;40.50;24.87;;;3.80;99.90;;;;;;5059249;28;20186;-48
2022/03/25 04:55:47;;;;;;;42.03;24.97;;;3.80;99.90;;;;;;5062263;28;20279;-47
2022/03/25 04:58:16;;;;;;;48.63;26.77;;;3.80;99.90;;;;;;5053351;28;20224;-48
2022/03/25 05:00:43;;;;;;;46.33;25.70;;;3.70;99.90;;;;;;5062634;28;20649;-47
2022/03/25 05:03:11;;;;;;;46.83;27.70;;;3.70;99.90;;;;;;5046658;28;20223;-50
2022/03/25 05:05:42;;;;;;;44.57;25.83;;;3.70;99.90;;;;;;5061175;28;20225;-46
2022/03/25 05:08:09;;;;;;;40.07;24.57;;;3.70;99.90;;;;;;5060364;28;20565;-52
2022/03/25 05:10:37;;;;;;;41.77;27.07;;;3.70;99.90;;;;;;5061757;28;20433;-46
2022/03/25 05:13:05;;;;;;;44.40;25.20;;;3.70;99.90;;;;;;5051852;28;20628;-53
2022/03/25 05:15:33;;;;;;;42.60;24.33;;;3.70;99.90;;;;;;5063162;28;20211;-49
2022/03/25 05:18:01;;;;;;;41.83;24.03;;;3.70;99.90;;;;;;5052689;28;20214;-52
2022/03/25 05:20:27;;;;;;;42.60;25.10;;;3.70;99.90;;;;;;5059424;28;20209;-48
2022/03/25 05:22:54;;;;;;;40.00;24.30;;;3.70;99.90;;;;;;5066838;28;20213;-51
2022/03/25 05:25:22;;;;;;;41.27;25.90;;;3.60;99.90;;;;;;5062581;28;20210;-49
2022/03/25 05:27:51;;;;;;;42.73;24.93;;;3.60;99.90;;;;;;5059965;28;20226;-48
2022/03/25 05:30:21;;;;;;;39.13;23.70;;;3.60;99.90;;;;;;5061864;28;20194;-47
2022/03/25 05:32:49;;;;;;;42.50;24.40;;;3.60;99.90;;;;;;5048040;28;20579;-48
2022/03/25 05:35:16;;;;;;;43.73;25.30;;;3.60;99.90;;;;;;5062539;28;20240;-51
2022/03/25 05:37:43;;;;;;;43.37;25.87;;;3.60;99.90;;;;;;5065739;28;20201;-50
2022/03/25 05:40:12;;;;;;;40.47;25.13;;;3.60;99.90;;;;;;5062000;28;20203;-49
2022/03/25 05:42:40;;;;;;;42.77;25.40;;;3.60;99.90;;;;;;5065268;28;20210;-49
2022/03/25 05:45:08;;;;;;;39.77;24.57;;;3.60;99.90;;;;;;5057835;28;20226;-50
2022/03/25 05:47:36;;;;;;;38.80;22.30;;;3.60;99.90;;;;;;5049046;28;20210;-46
2022/03/25 05:50:06;;;;;;;44.20;25.77;;;3.70;99.90;;;;;;5054340;28;20221;-46
2022/03/25 05:52:33;;;;;;;38.23;22.80;;;3.70;99.90;;;;;;5064996;28;20206;-48
2022/03/25 05:55:00;;;;;;;39.53;24.33;;;3.70;99.90;;;;;;5056824;28;20227;-49
2022/03/25 05:57:27;;;;;;;48.23;27.30;;;3.70;99.90;;;;;;5061952;28;20724;-48
2022/03/25 05:59:57;;;;;;;42.30;25.80;;;3.70;99.90;;;;;;5048936;28;20215;-52
2022/03/25 06:02:24;;;;;;;44.07;26.20;;;3.70;99.90;;;;;;5061503;28;20202;-46
2022/03/25 06:04:51;;;;;;;51.00;27.07;;;3.80;99.90;;;;;;5047920;28;20214;-53
2022/03/25 06:07:20;;;;;;;40.43;24.17;;;3.80;99.90;;;;;;5063988;28;20202;-46
2022/03/25 06:09:47;;;;;;;46.37;26.23;;;3.90;99.90;;;;;;5059116;28;20198;-52
2022/03/25 06:12:14;;;;;;;43.63;25.03;;;3.90;99.90;;;;;;5061985;28;20285;-47
2022/03/25 06:14:41;;;;;;;38.97;23.83;;;3.90;99.90;;;;;;5059519;28;20268;-50
2022/03/25 06:17:08;;;;;;;45.23;26.60;;;4.00;99.90;;;;;;5061239;28;20200;-49
2022/03/25 06:19:35;;;;;;;42.50;26.33;;;4.00;99.90;;;;;;5048652;28;20305;-48
2022/03/25 06:22:02;;;;;;;50.63;27.57;;;4.10;99.90;;;;;;5055901;28;20222;-48
2022/03/25 06:24:30;;;;;;;40.93;26.07;;;4.10;99.90;;;;;;5055937;28;20579;-51
2022/03/25 06:26:57;;;;;;;41.27;25.33;;;4.10;99.90;;;;;;5055074;28;20203;-49
2022/03/25 06:29:24;;;;;;;48.73;27.13;;;4.20;99.90;;;;;;5062383;28;20785;-47
2022/03/25 06:31:51;;;;;;;51.53;29.13;;;4.20;99.90;;;;;;5056480;28;20206;-51
2022/03/25 06:34:20;;;;;;;47.80;27.00;;;4.30;99.90;;;;;;5047214;28;21460;-50
2022/03/25 06:36:49;;;;;;;45.90;27.60;;;4.30;99.90;;;;;;5061884;28;20198;-51
2022/03/25 06:39:16;;;;;;;48.97;28.53;;;4.30;99.90;;;;;;5060944;28;20268;-45
2022/03/25 06:41:44;;;;;;;50.33;28.80;;;4.40;99.90;;;;;;5059512;28;20206;-49
2022/03/25 06:44:12;;;;;;;45.97;27.67;;;4.50;99.90;;;;;;5059603;28;20211;-52
2022/03/25 06:46:40;;;;;;;51.07;30.27;;;4.60;99.90;;;;;;5057540;28;20210;-47
2022/03/25 06:49:07;;;;;;;51.77;28.23;;;4.60;99.90;;;;;;5047796;28;20215;-48
2022/03/25 06:51:34;;;;;;;51.87;29.37;;;4.70;99.90;;;;;;5059393;28;20644;-50
2022/03/25 06:54:01;;;;;;;52.07;30.60;;;4.80;99.90;;;;;;5055763;28;20218;-50
2022/03/25 06:56:29;;;;;;;49.27;28.83;;;4.90;99.90;;;;;;5054172;28;20199;-48
2022/03/25 06:58:57;;;;;;;52.27;30.27;;;5.10;99.90;;;;;;5058009;28;20202;-51
2022/03/25 07:01:26;;;;;;;53.90;30.40;;;5.10;99.90;;;;;;5060798;28;20203;-47
2022/03/25 07:03:53;;;;;;;59.37;32.00;;;5.30;99.90;;;;;;5054255;28;20276;-53
2022/03/25 07:06:23;;;;;;;60.73;33.37;;;5.40;99.90;;;;;;5046411;28;20211;-47
2022/03/25 07:08:54;;;;;;;61.33;33.77;;;5.50;99.90;;;;;;5060700;28;20663;-52
2022/03/25 07:11:21;;;;;;;58.33;32.93;;;5.60;99.90;;;;;;5040363;28;20207;-51
2022/03/25 07:13:49;;;;;;;66.47;35.90;;;5.80;99.90;;;;;;5061954;28;20205;-49
2022/03/25 07:16:18;;;;;;;65.73;38.13;;;5.90;99.90;;;;;;5057354;28;20217;-49
2022/03/25 07:18:45;;;;;;;76.03;40.00;;;6.00;99.90;;;;;;5057006;28;20202;-50
2022/03/25 07:21:12;;;;;;;74.70;41.20;;;6.20;99.90;;;;;;5046564;28;20218;-53
2022/03/25 07:23:39;;;;;;;77.40;40.73;;;6.30;99.90;;;;;;5063783;28;20252;-48
2022/03/25 07:26:07;;;;;;;79.30;40.27;;;6.40;99.90;;;;;;5061274;28;21069;-52
2022/03/25 07:28:34;;;;;;;78.87;40.63;;;6.60;99.90;;;;;;5063811;28;20251;-48
2022/03/25 07:31:02;;;;;;;74.60;40.80;;;6.80;99.90;;;;;;5062416;28;20252;-50
2022/03/25 07:33:30;;;;;;;72.90;39.50;;;6.90;99.90;;;;;;5056163;28;20209;-46
2022/03/25 07:35:56;;;;;;;74.27;41.87;;;7.10;99.90;;;;;;5047291;28;20272;-50
2022/03/25 07:38:24;;;;;;;78.03;41.70;;;7.20;99.90;;;;;;5061073;28;20187;-51
2022/03/25 07:40:51;;;;;;;73.43;42.03;;;7.40;99.90;;;;;;5064489;28;20202;-47
2022/03/25 07:43:18;;;;;;;75.20;40.87;;;7.50;99.90;;;;;;5060192;28;20912;-52
2022/03/25 07:45:45;;;;;;;80.87;42.30;;;7.60;99.90;;;;;;5063453;28;20220;-51
2022/03/25 07:48:12;;;;;;;80.73;39.83;;;7.80;99.90;;;;;;5042423;28;20261;-46
2022/03/25 07:50:41;;;;;;;79.33;41.83;;;7.90;99.90;;;;;;5049638;28;20680;-52
2022/03/25 07:53:09;;;;;;;72.93;41.03;;;8.00;99.90;;;;;;5041441;28;20211;-50
2022/03/25 07:55:36;;;;;;;72.37;39.77;;;8.20;99.90;;;;;;5048566;28;20596;-53
2022/03/25 07:58:03;;;;;;;71.83;41.10;;;8.30;99.90;;;;;;5055653;28;20192;-51
2022/03/25 08:00:31;;;;;;;74.17;40.87;;;8.40;99.90;;;;;;5063703;28;20206;-47
2022/03/25 08:02:57;;;;;;;70.17;37.03;;;8.60;99.90;;;;;;5059224;28;20185;-49
2022/03/25 08:05:24;;;;;;;64.63;37.60;;;8.70;99.90;;;;;;5057489;28;20246;-47
2022/03/25 08:07:54;;;;;;;62.20;35.47;;;8.90;99.90;;;;;;5048896;28;20209;-50
2022/03/25 08:10:23;;;;;;;69.33;37.90;;;9.00;99.90;;;;;;5057407;28;20206;-47
2022/03/25 08:12:51;;;;;;;66.17;36.20;;;9.20;99.90;;;;;;5060402;28;20206;-51
2022/03/25 08:15:20;;;;;;;68.00;37.63;;;9.40;99.90;;;;;;5063487;28;20229;-50
2022/03/25 08:17:49;;;;;;;65.37;36.93;;;9.50;99.90;;;;;;5059198;28;20194;-46
2022/03/25 08:20:27;;;;;;;63.27;35.40;;;9.60;99.90;;;;;;5052325;28;20213;-46
2022/03/25 08:22:57;;;;;;;58.47;33.83;;;9.70;99.90;;;;;;5045742;28;20229;-47
2022/03/25 08:28:08;;;;;;;61.33;34.63;;;10.10;99.90;;;;;;5060626;28;20201;-48
2022/03/25 08:30:35;;;;;;;55.83;33.67;;;10.20;99.90;;;;;;5063506;28;20226;-52
2022/03/25 08:33:03;;;;;;;56.70;33.43;;;10.40;99.90;;;;;;5059691;28;20209;-46
2022/03/25 08:35:30;;;;;;;49.93;30.43;;;10.50;99.90;;;;;;5056836;28;20214;-51
2022/03/25 08:37:59;;;;;;;51.20;29.10;;;10.60;99.90;;;;;;5045359;28;20715;-50
2022/03/25 08:40:28;;;;;;;48.10;28.00;;;10.70;99.90;;;;;;5056906;28;20202;-49
2022/03/25 08:42:56;;;;;;;48.20;27.40;;;10.70;99.90;;;;;;5059172;28;20222;-46
2022/03/25 08:45:23;;;;;;;53.13;27.63;;;10.80;99.90;;;;;;5063041;28;20222;-50
2022/03/25 08:47:51;;;;;;;41.80;26.13;;;10.90;99.90;;;;;;5058973;28;20191;-49
2022/03/25 08:50:19;;;;;;;39.57;24.50;;;11.00;99.90;;;;;;5062887;28;20198;-49
2022/03/25 08:52:47;;;;;;;47.07;26.20;;;11.00;99.90;;;;;;5046227;28;20285;-52
2022/03/25 08:55:16;;;;;;;38.80;24.53;;;11.10;99.90;;;;;;5058097;28;20210;-49
2022/03/25 08:57:44;;;;;;;43.40;24.47;;;11.20;99.90;;;;;;5060529;28;20596;-52
2022/03/25 09:00:13;;;;;;;44.43;24.00;;;11.30;99.90;;;;;;5061389;28;20195;-46
2022/03/25 09:02:41;;;;;;;38.77;23.17;;;11.30;99.90;;;;;;5061625;28;20202;-50
2022/03/25 09:05:08;;;;;;;37.83;22.13;;;11.50;99.90;;;;;;5060432;28;20226;-47
2022/03/25 09:07:37;;;;;;;40.93;22.33;;;11.60;99.90;;;;;;5055713;28;20226;-47
2022/03/25 09:10:04;;;;;;;29.73;20.70;;;11.70;99.90;;;;;;5046222;28;20194;-47
2022/03/25 09:12:33;;;;;;;33.60;20.83;;;11.80;99.90;;;;;;5062672;28;20199;-46
2022/03/25 09:14:59;;;;;;;32.37;20.70;;;11.90;99.90;;;;;;5058601;28;21040;-46
2022/03/25 09:17:27;;;;;;;43.17;21.53;;;12.00;99.90;;;;;;5062152;28;20230;-49
2022/03/25 09:19:54;;;;;;;32.73;20.40;;;12.00;99.90;;;;;;5058883;28;20197;-52
2022/03/25 09:22:22;;;;;;;32.90;19.30;;;12.10;99.90;;;;;;5056156;28;20201;-48
2022/03/25 09:24:49;;;;;;;29.37;18.93;;;12.20;99.90;;;;;;5049485;28;20223;-48
2022/03/25 09:27:16;;;;;;;30.87;20.07;;;12.30;99.90;;;;;;5058921;28;20220;-46
2022/03/25 09:29:45;;;;;;;29.07;19.03;;;12.40;99.90;;;;;;5060873;28;20234;-52
2022/03/25 09:32:12;;;;;;;37.63;20.60;;;12.40;99.90;;;;;;5061230;28;21123;-48
2022/03/25 09:37:23;;;;;;;35.57;21.90;;;12.50;99.90;;;;;;5055742;28;20198;-47
2022/03/25 09:39:51;;;;;;;33.13;20.13;;;12.60;99.90;;;;;;5059524;28;20199;-48
2022/03/25 09:42:19;;;;;;;40.07;22.63;;;12.70;99.90;;;;;;5048592;28;20214;-50
2022/03/25 09:44:48;;;;;;;39.97;22.30;;;12.90;99.90;;;;;;5060047;28;20551;-47
2022/03/25 09:47:17;;;;;;;40.00;22.30;;;13.00;99.90;;;;;;5060813;28;20199;-48
2022/03/25 09:49:44;;;;;;;42.33;23.80;;;13.10;99.90;;;;;;5060864;28;20260;-51
2022/03/25 09:52:11;;;;;;;37.63;23.70;;;13.20;99.90;;;;;;5061013;28;20887;-47
2022/03/25 09:54:38;;;;;;;43.43;23.70;;;13.30;99.90;;;;;;5055414;28;20233;-52
2022/03/25 09:57:05;;;;;;;41.97;23.17;;;13.30;99.90;;;;;;5045505;28;20213;-48
2022/03/25 09:59:33;;;;;;;40.83;23.87;;;13.40;99.90;;;;;;5063805;28;20191;-50
2022/03/25 10:02:01;;;;;;;40.90;25.37;;;13.50;99.70;;;;;;5061836;28;20198;-46
2022/03/25 10:04:42;;;;;;;39.10;22.93;;;13.50;99.10;;;;;;5066327;28;20219;-47
2022/03/25 10:07:20;;;;;;;32.23;21.20;;;13.60;98.00;;;;;;5063565;28;20194;-45
2022/03/25 10:09:50;;;;;;;40.10;22.40;;;13.60;97.90;;;;;;5056647;28;20205;-51
2022/03/25 10:12:23;;;;;;;37.40;23.13;;;13.60;98.40;;;;;;5051951;28;20207;-45
2022/03/25 10:14:51;;;;;;;37.17;23.37;;;13.70;98.40;;;;;;5062548;28;20215;-50
2022/03/25 10:17:19;;;;;;;36.97;23.30;;;13.80;98.20;;;;;;5065068;28;20198;-46
2022/03/25 10:20:10;;;;;;;34.77;22.50;;;13.90;98.00;;;;;;5060509;28;20210;-46
2022/03/25 10:22:37;;;;;;;39.07;23.43;;;14.00;97.40;;;;;;5065286;28;20733;-53
2022/03/25 10:25:09;;;;;;;36.77;22.50;;;14.00;96.70;;;;;;5055729;28;20230;-46
2022/03/25 10:27:37;;;;;;;39.43;23.03;;;14.10;96.80;;;;;;5062893;28;20244;-50
2022/03/25 10:30:06;;;;;;;37.47;22.77;;;14.10;96.30;;;;;;5053164;28;20194;-50
2022/03/25 10:32:39;;;;;;;38.17;23.33;;;14.20;95.30;;;;;;5065272;28;20221;-48
2022/03/25 10:35:09;;;;;;;38.67;22.97;;;14.30;94.70;;;;;;5062986;28;20211;-50
2022/03/25 10:37:36;;;;;;;41.90;22.33;;;14.40;94.90;;;;;;5064676;28;20277;-52
2022/03/25 10:40:06;;;;;;;33.93;20.77;;;14.40;94.40;;;;;;5055454;28;20907;-53
2022/03/25 10:42:36;;;;;;;36.73;22.27;;;14.50;93.70;;;;;;5064817;28;20201;-52
2022/03/25 10:45:25;;;;;;;43.30;23.33;;;14.40;93.10;;;;;;5052652;28;21037;-48
2022/03/25 10:48:11;;;;;;;36.07;21.33;;;14.50;91.70;;;;;;5060390;28;20198;-51
2022/03/25 10:51:00;;;;;;;36.73;21.33;;;14.50;91.80;;;;;;5064497;28;20293;-51
2022/03/25 10:53:29;;;;;;;38.70;21.33;;;14.60;91.60;;;;;;5059578;28;20203;-48
2022/03/25 10:55:57;;;;;;;33.13;20.60;;;14.70;92.20;;;;;;5053519;28;20217;-53
2022/03/25 10:58:25;;;;;;;33.20;19.87;;;14.70;91.90;;;;;;5064924;28;20202;-48
2022/03/25 11:00:51;;;;;;;35.03;20.40;;;14.70;91.70;;;;;;5046197;28;20210;-53
2022/03/25 11:03:20;;;;;;;30.10;18.23;;;14.70;91.80;;;;;;5064812;28;20564;-48
2022/03/25 11:05:47;;;;;;;31.40;18.90;;;14.80;91.20;;;;;;5061939;28;20218;-51
2022/03/25 11:08:14;;;;;;;32.13;19.20;;;14.80;91.30;;;;;;5063945;28;20205;-50
2022/03/25 11:10:41;;;;;;;28.87;17.27;;;14.80;91.40;;;;;;5061390;28;20553;-53
2022/03/25 11:13:09;;;;;;;28.77;16.23;;;14.90;90.60;;;;;;5057058;28;20223;-52
2022/03/25 11:15:37;;;;;;;32.27;16.80;;;15.00;89.30;;;;;;5033816;28;21068;-50
2022/03/25 11:18:03;;;;;;;25.73;17.53;;;15.10;87.80;;;;;;5063276;28;20206;-52
2022/03/25 11:20:32;;;;;;;32.77;16.83;;;15.10;86.70;;;;;;5055168;28;20692;-51
2022/03/25 11:23:06;;;;;;;31.47;16.80;;;15.10;85.80;;;;;;5059440;28;20671;-51
2022/03/25 11:25:38;;;;;;;28.20;16.43;;;15.10;85.30;;;;;;5060695;28;20293;-50
2022/03/25 11:28:09;;;;;;;26.27;16.43;;;15.20;83.90;;;;;;5057023;28;20206;-52
2022/03/25 11:30:37;;;;;;;30.17;16.03;;;15.30;84.10;;;;;;5042105;28;20213;-49
2022/03/25 11:33:06;;;;;;;29.47;16.33;;;15.40;83.40;;;;;;5049746;28;20635;-53
2022/03/25 11:35:36;;;;;;;27.30;14.93;;;15.40;82.10;;;;;;5041882;28;20219;-52
2022/03/25 11:38:22;;;;;;;24.57;15.10;;;15.40;79.70;;;;;;5056985;28;20198;-52
2022/03/25 11:40:50;;;;;;;24.07;14.10;;;15.40;79.30;;;;;;5056748;28;20705;-51
2022/03/25 11:43:18;;;;;;;21.50;14.73;;;15.50;79.10;;;;;;5053980;28;20203;-51
2022/03/25 11:45:47;;;;;;;32.07;15.50;;;15.60;78.10;;;;;;5041945;28;20222;-48
2022/03/25 11:48:37;;;;;;;23.47;13.93;;;15.60;77.90;;;;;;5050274;28;20207;-48
2022/03/25 11:51:31;;;;;;;26.23;13.83;;;15.70;77.20;;;;;;5041140;28;20218;-51
2022/03/25 11:53:58;;;;;;;22.83;14.67;;;15.70;77.70;;;;;;5060221;28;20205;-53
2022/03/25 11:56:25;;;;;;;25.47;14.73;;;15.60;77.70;;;;;;5055361;28;20198;-48
2022/03/25 11:59:01;;;;;;;26.13;15.30;;;15.70;78.10;;;;;;5054335;28;20671;-51
2022/03/25 12:01:30;;;;;;;24.23;14.67;;;15.90;78.10;;;;;;5044706;28;20211;-48
2022/03/25 12:03:58;;;;;;;26.57;15.93;;;16.00;78.50;;;;;;5060823;28;20198;-51
2022/03/25 12:06:27;;;;;;;23.33;14.20;;;16.00;79.30;;;;;;5062225;28;20210;-48
2022/03/25 12:09:00;;;;;;;28.30;15.50;;;16.20;77.90;;;;;;5062114;28;20203;-47
2022/03/25 12:11:49;;;;;;;23.70;15.00;;;16.20;76.60;;;;;;5063057;28;20210;-47
2022/03/25 12:14:17;;;;;;;24.97;15.40;;;16.20;75.40;;;;;;5054221;28;20198;-51
2022/03/25 12:16:54;;;;;;;25.17;16.57;;;16.20;76.90;;;;;;5062517;28;20305;-46
2022/03/25 12:19:44;;;;;;;26.27;15.73;;;16.20;76.50;;;;;;5038660;28;20199;-47
2022/03/25 12:22:28;;;;;;;24.23;14.70;;;16.30;75.40;;;;;;5052079;28;20281;-52
2022/03/25 12:24:58;;;;;;;21.67;14.67;;;16.40;73.30;;;;;;5044277;28;20967;-51
2022/03/25 12:27:26;;;;;;;24.77;14.37;;;16.30;74.50;;;;;;5051632;28;20219;-48
2022/03/25 12:29:55;;;;;;;27.03;15.33;;;16.30;76.50;;;;;;5050315;28;20249;-45
2022/03/25 12:32:24;;;;;;;24.13;13.70;;;16.40;76.00;;;;;;5062423;28;20198;-52
2022/03/25 12:34:55;;;;;;;22.23;13.37;;;16.50;75.00;;;;;;5034556;28;20864;-48
2022/03/25 12:37:29;;;;;;;21.53;13.20;;;16.40;74.70;;;;;;5060061;28;20240;-51
2022/03/25 12:40:10;;;;;;;18.23;13.23;;;16.50;75.10;;;;;;5036436;28;20202;-52
2022/03/25 12:42:36;;;;;;;23.37;13.60;;;16.60;73.50;;;;;;5040226;28;20194;-52
2022/03/25 12:45:04;;;;;;;22.50;13.07;;;16.60;74.50;;;;;;5047984;28;20233;-46